Flight Track Log - Related Links

Times and Time Zones

All times are in EDT time to prevent confusion due to time zone crossing. See the SWA2436 flight status page for this flight to view local times or setup timezone preferences in your user account.

Time Position Orientation Groundspeed Altitude Reporting Facility
EDT Latitude Longitude Course Direction KTS MPH feet Rate Location/Type
Tue 08:18:22 PM 28.4000 -81.3000 221° Southwest 161 185 1,200  Level Orlando TRACON
Tue 08:19:22 PM 28.3667 -81.3333 221° Southwest 231 266 4,400 3,540 Climbing Orlando TRACON
Tue 08:21:03 PM 28.3592 -81.4892 267° West 291 335 10,700 3,727 Climbing Jacksonville Center
Tue 08:22:03 PM 28.3564 -81.5975 268° West 319 367 14,400 3,400 Climbing Jacksonville Center
Tue 08:23:03 PM 28.3575 -81.7178 271° West 359 413 17,500 3,200 Climbing Jacksonville Center
Tue 08:24:03 PM 28.3564 -81.8406 269° West 387 445 20,800 3,400 Climbing Jacksonville Center
Tue 08:25:03 PM 28.3303 -81.9611 256° West 393 452 24,300 2,600 Climbing Jacksonville Center
Tue 08:26:03 PM 28.3039 -82.0864 257° West 403 464 26,000 2,050 Climbing Jacksonville Center
Tue 08:27:03 PM 28.2753 -82.2114 255° West 408 470 28,400 2,400 Climbing Jacksonville Center
Tue 08:28:03 PM 28.2467 -82.3364 255° West 413 475 30,800 2,100 Climbing Jacksonville Center
Tue 08:29:03 PM 28.2200 -82.4544 256° West 418 481 32,600 1,981 Climbing Jacksonville Center
Tue 08:31:32 PM 28.1478 -82.7683 255° West 428 493 37,700 1,550 Climbing Miami Center
Tue 08:32:32 PM 28.1217 -82.8917 257° West 428 493 38,000 150 Climbing Miami Center
Tue 08:33:32 PM 28.1017 -83.0200 260° West 423 487 38,000  Level Miami Center
Tue 08:34:32 PM 28.0900 -83.1439 264° West 411 473 38,000  Level Miami Center
Tue 08:35:32 PM 28.0822 -83.2706 266° West 406 467 38,000  Level Miami Center
Tue 08:36:32 PM 28.0736 -83.3711 264° West 406 467 38,000  Level Miami Center
Tue 08:37:32 PM 28.0564 -83.5228 263° West 406 467 38,000  Level Miami Center
Tue 08:38:32 PM 28.0442 -83.6492 264° West 406 467 38,000  Level Miami Center
Tue 08:39:32 PM 28.0339 -83.7753 265° West 406 467 38,000  Level Miami Center
Tue 08:40:32 PM 28.0214 -83.9014 264° West 406 467 38,000  Level Miami Center
Tue 08:41:32 PM 28.0047 -84.0294 262° West 406 467 38,000  Level Miami Center
Tue 08:43:51 PM 27.9814 -84.3239 265° West 408 470 38,000  Level Jacksonville Center
Tue 08:44:51 PM 27.9694 -84.4506 264° West 408 470 38,000  Level Jacksonville Center
Tue 08:45:51 PM 27.9533 -84.5747 262° West 408 470 38,000  Level Jacksonville Center
Tue 08:46:51 PM 27.9411 -84.7036 264° West 408 470 38,000  Level Jacksonville Center
Tue 08:47:51 PM 27.9267 -84.8350 263° West 414 476 38,000  Level Jacksonville Center
Tue 08:48:51 PM 27.9142 -84.9592 264° West 409 471 38,000  Level Jacksonville Center
Tue 08:49:51 PM 27.9017 -85.0858 264° West 409 471 38,000  Level Jacksonville Center
Tue 08:50:51 PM 27.8914 -85.2053 264° West 403 464 38,000  Level Jacksonville Center
Tue 08:51:51 PM 27.9036 -85.3322 276° West 403 464 38,000  Level Jacksonville Center
Tue 08:52:51 PM 27.9411 -85.4483 290° West 395 455 38,000  Level Jacksonville Center
Tue 08:53:51 PM 27.9761 -85.5644 289° West 395 455 38,000  Level Jacksonville Center
Tue 08:54:51 PM 28.0114 -85.6806 289° West 395 455 38,000  Level Jacksonville Center
Tue 08:55:51 PM 28.0461 -85.7989 288° West 395 455 38,000  Level Jacksonville Center
Tue 08:56:51 PM 28.0831 -85.9178 289° West 395 455 38,000  Level Jacksonville Center
Tue 08:57:51 PM 28.1178 -86.0364 288° West 400 460 38,000  Level Jacksonville Center
Tue 08:58:51 PM 28.1544 -86.1528 290° West 400 460 38,000  Level Jacksonville Center
Tue 08:59:51 PM 28.1975 -86.2625 294° West 399 459 38,000  Level Jacksonville Center
Tue 09:00:51 PM 28.2528 -86.3822 298° West 399 459 38,000  Level Jacksonville Center
Tue 09:01:51 PM 28.3019 -86.4922 297° West 405 466 38,000  Level Jacksonville Center
Tue 09:02:51 PM 28.3569 -86.6122 298° West 412 474 38,000  Level Jacksonville Center
Tue 09:03:51 PM 28.4100 -86.7250 298° West 412 474 38,000  Level Jacksonville Center
Tue 09:04:51 PM 28.4628 -86.8381 298° West 412 474 38,000  Level Jacksonville Center
Tue 09:05:51 PM 28.5117 -86.9461 297° West 412 474 38,000  Level Jacksonville Center
Tue 09:06:51 PM 28.5664 -87.0642 298° West 412 474 38,000  Level Jacksonville Center
Tue 09:07:51 PM 28.6150 -87.1725 297° West 404 465 38,000  Level Jacksonville Center
Tue 09:09:46 PM 28.7133 -87.3931 297° West 401 461 38,000  Level Houston Center
Tue 09:10:47 PM 28.7650 -87.5050 298° West 398 458 38,000  Level Houston Center
Tue 09:11:48 PM 28.8150 -87.6197 296° West 402 463 38,000  Level Houston Center
Tue 09:12:50 PM 28.8667 -87.7339 297° West 406 467 38,000  Level Houston Center
Tue 09:13:51 PM 28.9175 -87.8489 297° West 405 466 38,000  Level Houston Center
Tue 09:14:52 PM 28.9692 -87.9650 297° West 407 468 38,000  Level Houston Center
Tue 09:15:54 PM 29.0247 -88.0883 297° West 407 468 38,000  Level Houston Center
Tue 09:16:55 PM 29.0747 -88.2050 296° West 409 471 38,000  Level Houston Center
Tue 09:17:56 PM 29.1267 -88.3211 297° West 411 473 38,000  Level Houston Center
Tue 09:18:58 PM 29.1775 -88.4372 297° West 409 471 38,000  Level Houston Center
Tue 09:19:59 PM 29.2292 -88.5542 297° West 411 473 38,000  Level Houston Center
Tue 09:21:00 PM 29.2797 -88.6700 297° West 410 472 38,000 -49 Level Houston Center
Tue 09:22:02 PM 29.3297 -88.7867 296° West 408 470 37,900 -1,742 Descending Houston Center
Tue 09:23:04 PM 29.3903 -88.9250 297° West 405 466 34,400 -3,541 Descending Houston Center
Tue 09:24:04 PM 29.4411 -89.0447 296° West 415 478 30,700 -3,273 Descending Houston Center
Tue 09:25:05 PM 29.4931 -89.1647 296° West 420 483 27,800 -2,829 Descending Houston Center
Tue 09:26:07 PM 29.5419 -89.2803 296° West 409 471 24,900 -2,780 Descending Houston Center
Tue 09:27:08 PM 29.5889 -89.3897 296° West 393 452 22,100 -2,902 Descending Houston Center
Tue 09:28:09 PM 29.6372 -89.4956 298° West 379 436 19,000 -2,878 Descending Houston Center
Tue 09:29:11 PM 29.7106 -89.5836 314° West 381 438 16,200 -2,634 Descending Houston Center
Tue 09:30:12 PM 29.7808 -89.6692 313° West 372 428 13,600 -2,656 Descending Houston Center
Tue 09:31:13 PM 29.8506 -89.7544 313° West 366 421 10,800 -1,938 Descending Houston Center
Tue 09:32:22 PM 29.9319 -89.8575 312° West 311 358 9,400 -1,246 Descending Houston Center
Tue 09:33:23 PM 29.9886 -89.9269 313° West 298 343 8,100 -1,357 Descending Houston Center
Tue 09:34:17 PM 30.0461 -89.9744 324° Northwest 297 342 6,800 -1,398 Descending Houston Center
Tue 09:35:06 PM 30.1022 -90.0108 331° Northwest 283 326 5,700 -1,230 Descending Houston Center
Tue 09:36:19 PM 30.1861 -90.0597 333° Northwest 283 326 4,300 -843 Descending Houston Center
Tue 09:37:07 PM 30.2261 -90.0969 321° Northwest 245 282 4,000 -606 Descending Houston Center
Tue 09:38:08 PM 30.2114 -90.1603 255° West 199 229 3,200 -885 Descending Houston Center
Tue 09:39:09 PM 30.1644 -90.1933 211° Southwest 196 226 2,200 -545 Descending Houston Center
Tue 09:40:09 PM 30.1147 -90.2100 196° South 188 216 2,100 -248 Descending Houston Center
Tue 09:41:10 PM 30.0650 -90.2264 196° South 184 212 1,700 -474 Descending Houston Center
Tue 09:41:25 PM 30.0600 -90.2286 201° Southwest 190 219 1,500 -1,000 Descending Houston Center
Tue 09:42:04 PM 30.0300 -90.2372 194° South 136 157 800 -885 Descending Houston Center
Tue 09:42:26 PM 30.0219 -90.2406 200° South 166 191 600 -545 Descending Houston Center

Login

Don't have an account? Register now (free) for customized features, flight alerts, and more!